Fort Collins, CO (80524)

7:13 AM MST op 04 december 2016 (GMT -0700)
Crestview Area, North Fort Collins | | Change Station

Hoogte 5072 ft 40.62 °N, 105.06 °W | Updated 4 seconds ago

Clear
Helder
15.1 °F
Voelt als 15 °F
N
0.0
Wind Variabel Wind van west
Gusts 0.0 mijl/u

Vandaag
Hoog -- | Laag -- °F
--% Kans op neerslag
Gisteren
Hoog -- | Laag -- °F
Precip. -- inches
Druk 30.00 inches
Zicht 10.0 mijlen
Wolken Helder
Gevoelstemperatuur 15 °F
Dauwpunt 9 °F
Vochtigheid 76%
Neerslag 0.00 inches
Dikte sneeuw Niet beschikbaar.
7:08 AM 4:33 PM
Wassende halvemaan, 23% visible
METAR KFNL 041355Z AUTO 01006KT 10SM CLR M10/M12 A3000 RMK AO1
Druk 30.00 inches
Zicht 10.0 mijlen
Wolken Helder
Gevoelstemperatuur 15 °F
Dauwpunt 9 °F
Vochtigheid 76%
Neerslag 0.00 inches
Dikte sneeuw Niet beschikbaar.
7:08 AM 4:33 PM
Wassende halvemaan, 23% visible
METAR KFNL 041355Z AUTO 01006KT 10SM CLR M10/M12 A3000 RMK AO1

10-Day Weather Forecast

Almanac

Astronomie

Dec. 04, 2016 Opkomst Ondergang
Werkelijke tijd
Burgerlijke schemering
Nautische schemering
Astronomische schemering
Maan
Golflengte van het zichtbare licht
Daglengte
Tomorrow will be .
, % of the Moon is Illuminated

Extremen vandaag

State Highs State Lows

Community

WunderPhotos

Upload Photos

1,955,598 foto’s ge-upload!

WunderBlog® & News

Nearby

Luchtkwaliteit

  Luchtkwaliteit LK-index Verontreinigende stof
Not available.

Dikte sneeuw

Station Depth Geometrische hoogte

Aardbevingen

Stad Distance Mag. Time & Date
Minimum magnitude displayed is 2.5.

Watertemperatuur langs de kust

Plaats Temperatuur

Stations

Nabije weerstations

Locatie station Temp. Gevoelstemperatuur Dauwpunt Vochtigheid Wind Precip. Hoogte Geactualiseerd Type
                   

Watches & Warnings

There are currently no watches in effect.